Time;durP1;ratioP1;P1;durP2;ratioP2;P2;SDS_P1;SDS_P2;PMS_P1;PMS_P2;Temp;Humidity;BMP_temperature;BMP_pressure;BME280_temperature;BME280_humidity;BME280_pressure;Samples;Min_cycle;Max_cycle;Signal;HPM_P1;HPM_P2
2023/09/19 00:01:08;;;;;;;0.00;0.00;;;18.10;99.90;;;;;;4948376;29;20038;-89
2023/09/19 00:03:37;;;;;;;0.00;0.00;;;18.20;99.90;;;;;;4950913;28;20043;-88
2023/09/19 00:06:04;;;;;;;0.00;0.00;;;18.10;99.90;;;;;;4952720;28;20042;-91
2023/09/19 00:08:31;;;;;;;0.00;0.00;;;18.10;99.90;;;;;;4949739;28;20523;-88
2023/09/19 00:11:05;;;;;;;0.00;0.00;;;18.10;99.90;;;;;;4946355;29;20035;-88
2023/09/19 00:13:31;;;;;;;0.00;0.00;;;18.20;99.90;;;;;;4948007;28;20126;-87
2023/09/19 00:15:58;;;;;;;0.00;0.00;;;18.20;99.90;;;;;;4948467;29;20046;-88
2023/09/19 00:18:32;;;;;;;0.00;0.00;;;18.10;99.90;;;;;;4943930;28;20036;-88
2023/09/19 00:21:01;;;;;;;0.00;0.00;;;18.20;99.90;;;;;;4948815;28;20053;-88
2023/09/19 00:23:28;;;;;;;0.00;0.00;;;18.10;99.90;;;;;;4949510;28;20031;-87
2023/09/19 00:25:57;;;;;;;0.00;0.00;;;18.20;99.90;;;;;;4943796;28;20088;-88
2023/09/19 00:28:23;;;;;;;0.00;0.00;;;18.20;99.90;;;;;;4948003;28;20027;-88
2023/09/19 00:30:52;;;;;;;0.00;0.00;;;18.20;99.90;;;;;;4964385;28;20039;-88
2023/09/19 00:33:20;;;;;;;0.00;0.00;;;18.20;99.90;;;;;;4950071;28;20275;-87
2023/09/19 00:35:53;;;;;;;0.00;0.00;;;18.20;99.90;;;;;;4945231;29;20086;-88
2023/09/19 00:38:24;;;;;;;0.00;0.00;;;18.20;99.90;;;;;;4949723;28;20042;-86
2023/09/19 00:40:53;;;;;;;0.00;0.00;;;18.10;99.90;;;;;;4942353;29;20028;-87
2023/09/19 00:43:23;;;;;;;0.00;0.00;;;18.00;99.90;;;;;;4943967;29;20074;-88
2023/09/19 00:45:52;;;;;;;0.00;0.00;;;18.20;99.90;;;;;;4949065;29;20456;-88
2023/09/19 00:48:20;;;;;;;0.00;0.00;;;18.20;99.90;;;;;;4943917;29;20321;-87
2023/09/19 00:50:47;;;;;;;0.00;0.00;;;18.20;99.90;;;;;;4960633;28;20086;-87
2023/09/19 00:53:18;;;;;;;0.00;0.00;;;18.10;99.90;;;;;;4958251;28;20545;-87
2023/09/19 00:55:44;;;;;;;0.00;0.00;;;18.10;99.90;;;;;;4945980;29;20031;-88
2023/09/19 00:58:11;;;;;;;0.00;0.00;;;18.10;99.90;;;;;;4955363;28;20027;-89
2023/09/19 01:00:38;;;;;;;0.00;0.00;;;18.10;99.90;;;;;;4950333;29;20553;-89
2023/09/19 01:03:04;;;;;;;;;;;18.10;99.90;;;;;;4945451;29;20031;-90
2023/09/19 01:05:30;;;;;;;0.00;0.00;;;18.00;99.90;;;;;;4950005;28;19957;-88
2023/09/19 01:07:56;;;;;;;0.00;0.00;;;18.00;99.90;;;;;;4965573;28;20055;-87
2023/09/19 01:10:22;;;;;;;0.00;0.00;;;18.00;99.90;;;;;;4946961;28;20035;-89
2023/09/19 01:13:05;;;;;;;0.00;0.00;;;18.00;99.90;;;;;;4949168;28;20042;-90
2023/09/19 01:15:54;;;;;;;0.00;0.00;;;18.00;99.90;;;;;;4933689;29;20043;-89
2023/09/19 01:18:35;;;;;;;0.00;0.00;;;18.00;99.90;;;;;;4946875;29;20059;-89
2023/09/19 01:21:06;;;;;;;0.00;0.00;;;17.90;99.90;;;;;;4945318;28;20047;-90
2023/09/19 01:23:50;;;;;;;0.00;0.00;;;18.00;99.90;;;;;;4943818;29;20036;-90
2023/09/19 01:26:15;;;;;;;0.00;0.00;;;18.00;99.90;;;;;;4960118;28;20463;-89
2023/09/19 01:29:24;;;;;;;0.00;0.00;;;17.70;99.90;;;;;;4950558;28;20039;-88
2023/09/19 01:31:54;;;;;;;0.00;0.00;;;17.90;99.90;;;;;;4947631;29;20048;-89
2023/09/19 01:34:20;;;;;;;0.00;0.00;;;18.00;99.90;;;;;;4940526;28;20036;-90
2023/09/19 01:36:46;;;;;;;0.00;0.00;;;17.90;99.90;;;;;;4943015;28;20936;-89
2023/09/19 01:39:13;;;;;;;0.00;0.00;;;18.00;99.90;;;;;;4962300;28;20062;-87
2023/09/19 01:41:38;;;;;;;0.00;0.00;;;17.80;99.90;;;;;;4941150;29;20031;-90
2023/09/19 01:44:09;;;;;;;0.00;0.00;;;17.90;99.90;;;;;;4947249;28;20081;-90
2023/09/19 01:46:40;;;;;;;0.00;0.00;;;17.90;99.90;;;;;;4943784;29;20085;-89
2023/09/19 01:49:25;;;;;;;0.00;0.00;;;17.90;99.90;;;;;;4961354;28;20031;-89
2023/09/19 01:52:13;;;;;;;0.00;0.00;;;17.90;99.90;;;;;;4943812;28;20031;-88
2023/09/19 01:54:55;;;;;;;0.00;0.00;;;17.90;99.90;;;;;;4939864;29;20043;-88
2023/09/19 01:57:32;;;;;;;0.00;0.00;;;17.90;99.90;;;;;;4960077;28;20038;-89
2023/09/19 02:00:06;;;;;;;0.00;0.00;;;17.90;99.90;;;;;;4945285;29;20110;-88
2023/09/19 02:02:37;;;;;;;0.00;0.00;;;17.90;99.90;;;;;;4946491;28;20067;-89
2023/09/19 02:05:04;;;;;;;0.00;0.00;;;17.90;99.90;;;;;;4954948;28;20041;-90
2023/09/19 02:07:35;;;;;;;0.10;0.10;;;17.80;99.90;;;;;;4946353;28;20063;-87
2023/09/19 02:10:01;;;;;;;0.00;0.00;;;17.70;99.90;;;;;;4945089;29;20027;-86
2023/09/19 02:12:27;;;;;;;0.00;0.00;;;17.80;99.90;;;;;;4947093;29;20090;-87
2023/09/19 02:14:53;;;;;;;0.00;0.00;;;17.80;99.90;;;;;;4941734;28;20039;-87
2023/09/19 02:17:19;;;;;;;0.00;0.00;;;17.90;99.90;;;;;;4948433;29;20514;-85
2023/09/19 02:19:45;;;;;;;0.00;0.00;;;17.90;99.90;;;;;;4945576;29;20679;-86
2023/09/19 02:22:10;;;;;;;0.00;0.00;;;17.90;99.90;;;;;;4949236;28;20038;-86
2023/09/19 02:24:39;;;;;;;0.00;0.00;;;17.80;99.90;;;;;;4943479;28;20027;-85
2023/09/19 02:27:05;;;;;;;0.00;0.00;;;17.80;99.90;;;;;;4945042;29;20043;-86
2023/09/19 02:29:31;;;;;;;0.00;0.00;;;17.90;99.90;;;;;;4945570;28;20114;-86
2023/09/19 02:31:57;;;;;;;0.00;0.00;;;17.90;99.90;;;;;;4946075;29;20046;-87
2023/09/19 02:34:23;;;;;;;0.00;0.00;;;17.80;99.90;;;;;;4946414;28;20781;-88
2023/09/19 02:36:49;;;;;;;0.00;0.00;;;17.80;99.90;;;;;;4956125;28;20543;-85
2023/09/19 02:39:14;;;;;;;0.00;0.00;;;17.80;99.90;;;;;;4946680;28;20058;-86
2023/09/19 02:41:41;;;;;;;0.00;0.00;;;17.70;99.90;;;;;;4944850;29;20742;-87
2023/09/19 02:44:07;;;;;;;0.00;0.00;;;17.70;99.90;;;;;;4941011;29;20033;-86
2023/09/19 02:46:35;;;;;;;0.10;0.10;;;17.70;99.90;;;;;;4941657;29;20739;-87
2023/09/19 02:49:03;;;;;;;0.00;0.00;;;17.60;99.90;;;;;;4946582;28;20035;-87
2023/09/19 02:51:28;;;;;;;0.00;0.00;;;17.60;99.90;;;;;;4945391;29;20049;-86
2023/09/19 02:53:54;;;;;;;0.00;0.00;;;17.60;99.90;;;;;;4946402;29;20581;-88
2023/09/19 02:56:20;;;;;;;0.00;0.00;;;17.50;99.90;;;;;;4947712;28;20118;-88
2023/09/19 02:58:46;;;;;;;0.00;0.00;;;17.40;99.90;;;;;;4953196;29;20032;-89
2023/09/19 03:01:12;;;;;;;0.57;0.57;;;17.40;99.90;;;;;;4948033;28;20054;-89
2023/09/19 03:03:39;;;;;;;0.00;0.00;;;17.20;99.90;;;;;;4967905;28;20035;-89
2023/09/19 03:06:08;;;;;;;0.00;0.00;;;17.10;99.90;;;;;;4952863;28;20039;-90
2023/09/19 03:08:36;;;;;;;0.55;0.55;;;17.00;99.90;;;;;;4947300;28;20039;-89
2023/09/19 03:11:03;;;;;;;0.00;0.00;;;17.00;99.90;;;;;;4950600;28;20045;-91
2023/09/19 03:13:31;;;;;;;0.00;0.00;;;17.00;99.90;;;;;;4955339;28;20061;-93
2023/09/19 03:15:58;;;;;;;0.00;0.00;;;17.00;99.90;;;;;;4947450;28;20539;-88
2023/09/19 03:18:26;;;;;;;0.30;0.30;;;17.00;99.90;;;;;;4963454;28;20114;-92
2023/09/19 03:20:56;;;;;;;0.00;0.00;;;17.00;99.90;;;;;;4957041;28;20530;-92
2023/09/19 03:23:22;;;;;;;0.00;0.00;;;17.00;99.90;;;;;;4946168;28;20546;-87
2023/09/19 03:25:48;;;;;;;0.00;0.00;;;17.00;99.90;;;;;;4949907;28;20055;-89
2023/09/19 03:28:15;;;;;;;0.00;0.00;;;17.00;99.90;;;;;;4971959;28;20031;-94
2023/09/19 03:30:41;;;;;;;0.00;0.00;;;17.00;99.90;;;;;;4957604;28;20082;-92
2023/09/19 03:33:08;;;;;;;0.00;0.00;;;17.00;99.90;;;;;;4953125;28;20529;-87
2023/09/19 03:35:34;;;;;;;0.00;0.00;;;17.10;99.90;;;;;;4966991;28;20043;-89
2023/09/19 03:38:00;;;;;;;0.00;0.00;;;17.10;99.90;;;;;;4949487;28;20062;-89
2023/09/19 03:40:26;;;;;;;0.00;0.00;;;17.20;99.90;;;;;;4950697;29;20476;-86
2023/09/19 03:42:51;;;;;;;0.00;0.00;;;17.10;99.90;;;;;;4960811;28;20055;-86
2023/09/19 03:45:18;;;;;;;0.10;0.10;;;17.00;99.90;;;;;;4949201;29;20451;-88
2023/09/19 03:47:43;;;;;;;0.00;0.00;;;16.90;99.90;;;;;;4941802;29;20042;-86
2023/09/19 03:50:15;;;;;;;0.00;0.00;;;17.00;99.90;;;;;;4947985;28;20801;-86
2023/09/19 03:52:40;;;;;;;0.00;0.00;;;17.00;99.90;;;;;;4940624;28;20035;-89
2023/09/19 03:55:06;;;;;;;0.00;0.00;;;17.00;99.90;;;;;;4938505;29;20598;-86
2023/09/19 03:57:32;;;;;;;0.00;0.00;;;17.00;99.90;;;;;;4944549;28;20038;-84
2023/09/19 03:59:58;;;;;;;0.00;0.00;;;17.10;99.90;;;;;;4939281;29;20031;-86
2023/09/19 04:02:24;;;;;;;0.00;0.00;;;17.00;99.90;;;;;;4944528;28;20043;-89
2023/09/19 04:04:51;;;;;;;0.32;0.32;;;17.10;99.90;;;;;;4941011;29;21653;-87
2023/09/19 04:07:22;;;;;;;0.00;0.00;;;17.00;99.90;;;;;;4957610;28;20050;-87
2023/09/19 04:09:49;;;;;;;0.00;0.00;;;17.00;99.90;;;;;;4934938;28;20110;-88
2023/09/19 04:12:16;;;;;;;0.00;0.00;;;17.10;99.90;;;;;;4941397;29;20042;-87
2023/09/19 04:14:42;;;;;;;0.45;0.45;;;17.10;99.90;;;;;;4950754;28;20344;-87
2023/09/19 04:17:08;;;;;;;0.00;0.00;;;17.10;99.90;;;;;;4941482;28;20040;-85
2023/09/19 04:19:34;;;;;;;0.00;0.00;;;17.10;99.90;;;;;;4941073;29;20669;-85
2023/09/19 04:21:59;;;;;;;0.00;0.00;;;17.00;99.90;;;;;;4947451;29;20051;-88
2023/09/19 04:24:25;;;;;;;0.00;0.00;;;17.00;99.90;;;;;;4948122;29;20038;-88
2023/09/19 04:26:51;;;;;;;0.00;0.00;;;17.00;99.90;;;;;;4948353;29;20031;-88
2023/09/19 04:29:19;;;;;;;0.00;0.00;;;17.00;99.90;;;;;;4941295;28;20039;-84
2023/09/19 04:31:45;;;;;;;0.00;0.00;;;17.10;99.90;;;;;;4944258;29;20043;-85
2023/09/19 04:34:16;;;;;;;;;;;17.10;99.90;;;;;;4943075;28;20031;-85
2023/09/19 04:36:41;;;;;;;0.00;0.00;;;17.10;99.90;;;;;;4949755;28;19973;-88
2023/09/19 04:39:07;;;;;;;0.00;0.00;;;17.00;99.90;;;;;;4949534;28;20060;-89
2023/09/19 04:41:34;;;;;;;0.20;0.20;;;17.00;99.90;;;;;;4945364;29;20032;-87
2023/09/19 04:44:00;;;;;;;0.00;0.00;;;17.00;99.90;;;;;;4963365;28;20049;-87
2023/09/19 04:46:25;;;;;;;0.00;0.00;;;17.10;99.90;;;;;;4943899;28;20520;-86
2023/09/19 04:48:51;;;;;;;0.00;0.00;;;17.20;99.90;;;;;;4949989;29;20039;-85
2023/09/19 04:51:18;;;;;;;0.00;0.00;;;17.10;99.90;;;;;;4964267;28;20031;-88
2023/09/19 04:53:44;;;;;;;0.00;0.00;;;17.10;99.90;;;;;;4947167;29;20046;-87
2023/09/19 04:56:10;;;;;;;0.00;0.00;;;17.20;99.90;;;;;;4966719;28;20039;-89
2023/09/19 04:58:35;;;;;;;0.00;0.00;;;17.20;99.90;;;;;;4952799;29;20034;-90
2023/09/19 05:01:02;;;;;;;0.00;0.00;;;17.10;99.90;;;;;;4949197;28;20031;-87
2023/09/19 05:03:27;;;;;;;0.00;0.00;;;17.20;99.90;;;;;;4967382;28;20046;-88
2023/09/19 05:05:53;;;;;;;0.00;0.00;;;17.20;99.90;;;;;;4947991;29;20035;-89
2023/09/19 05:08:19;;;;;;;0.00;0.00;;;17.10;99.90;;;;;;4948001;29;20031;-90
2023/09/19 05:10:45;;;;;;;0.10;0.10;;;17.20;99.90;;;;;;4952139;28;20039;-89
2023/09/19 05:13:11;;;;;;;0.00;0.00;;;17.20;99.90;;;;;;4950878;28;20031;-90
2023/09/19 05:15:37;;;;;;;0.00;0.00;;;17.20;99.90;;;;;;4948345;29;20043;-90
2023/09/19 05:18:06;;;;;;;0.00;0.00;;;17.30;99.90;;;;;;4964066;28;20782;-91
2023/09/19 05:20:37;;;;;;;;;;;17.30;99.90;;;;;;4951454;28;20074;-92
2023/09/19 05:23:07;;;;;;;0.10;0.10;;;17.20;99.90;;;;;;4946431;28;19986;-88
2023/09/19 05:25:37;;;;;;;0.30;0.30;;;17.00;99.90;;;;;;4947555;29;20137;-88
2023/09/19 05:28:05;;;;;;;0.00;0.00;;;17.00;99.90;;;;;;4949468;28;20035;-88
2023/09/19 05:30:32;;;;;;;0.00;0.00;;;17.10;99.90;;;;;;4950576;28;20042;-91
2023/09/19 05:32:58;;;;;;;0.00;0.00;;;17.20;99.90;;;;;;4953113;28;20781;-90
2023/09/19 05:35:24;;;;;;;0.00;0.00;;;17.10;99.90;;;;;;4948364;29;20098;-92
2023/09/19 05:37:55;;;;;;;0.00;0.00;;;17.10;99.90;;;;;;4971050;28;20800;-93
2023/09/19 05:40:21;;;;;;;0.00;0.00;;;17.00;99.90;;;;;;4952421;28;20046;-94
2023/09/19 05:42:47;;;;;;;0.00;0.00;;;17.00;99.90;;;;;;4968737;28;20042;-92
2023/09/19 05:45:14;;;;;;;0.00;0.00;;;17.10;99.90;;;;;;4962548;28;20043;-95
2023/09/19 05:47:46;;;;;;;0.00;0.00;;;17.10;99.90;;;;;;4944450;28;20039;-91
2023/09/19 05:50:12;;;;;;;0.00;0.00;;;17.30;99.90;;;;;;4961524;28;20039;-90
2023/09/19 05:52:38;;;;;;;0.00;0.00;;;17.30;99.90;;;;;;4966443;28;20027;-90
2023/09/19 05:55:10;;;;;;;0.00;0.00;;;17.40;99.90;;;;;;4946092;28;20045;-90
2023/09/19 05:57:38;;;;;;;5.50;1.85;;;17.30;99.90;;;;;;4946940;28;20129;-85
2023/09/19 06:00:10;;;;;;;0.00;0.00;;;17.20;99.90;;;;;;4942110;29;20035;-89
2023/09/19 06:02:40;;;;;;;0.00;0.00;;;17.20;99.90;;;;;;4960659;28;20030;-85
2023/09/19 06:05:06;;;;;;;0.00;0.00;;;17.20;99.90;;;;;;4945595;29;20046;-89
2023/09/19 06:07:37;;;;;;;0.00;0.00;;;17.20;99.90;;;;;;4952865;28;20757;-89
2023/09/19 06:10:07;;;;;;;0.00;0.00;;;17.10;99.90;;;;;;4956689;28;20079;-95
2023/09/19 06:12:37;;;;;;;0.05;0.05;;;17.10;99.90;;;;;;4949332;28;20095;-96
2023/09/19 06:15:05;;;;;;;0.00;0.00;;;17.30;99.90;;;;;;4950338;29;20038;-85
2023/09/19 06:17:31;;;;;;;0.00;0.00;;;17.30;99.90;;;;;;4960509;28;20047;-86
2023/09/19 06:19:57;;;;;;;0.00;0.00;;;18.20;99.90;;;;;;4938095;29;20039;-86
2023/09/19 06:22:23;;;;;;;0.00;0.00;;;17.90;99.90;;;;;;4937792;29;20040;-87
2023/09/19 06:24:49;;;;;;;0.00;0.00;;;17.50;99.90;;;;;;4946455;29;20035;-88
2023/09/19 06:27:15;;;;;;;0.00;0.00;;;18.10;99.90;;;;;;4965048;28;20042;-88
2023/09/19 06:29:41;;;;;;;0.00;0.00;;;17.90;99.90;;;;;;4964863;28;20038;-88
2023/09/19 06:32:10;;;;;;;0.00;0.00;;;17.90;99.90;;;;;;4948860;28;20084;-88
2023/09/19 06:34:43;;;;;;;0.00;0.00;;;17.80;99.90;;;;;;4960359;28;20135;-89
2023/09/19 06:37:09;;;;;;;0.00;0.00;;;18.00;99.90;;;;;;4949908;29;20087;-88
2023/09/19 06:39:34;;;;;;;0.00;0.00;;;18.30;99.90;;;;;;4964157;28;20714;-89
2023/09/19 06:42:01;;;;;;;0.00;0.00;;;18.40;99.90;;;;;;4964972;28;20023;-88
2023/09/19 06:44:29;;;;;;;0.00;0.00;;;18.60;99.90;;;;;;4964970;28;20027;-88
2023/09/19 06:46:55;;;;;;;0.00;0.00;;;18.20;99.90;;;;;;4965378;28;20070;-88
2023/09/19 06:49:20;;;;;;;0.00;0.00;;;18.00;99.90;;;;;;4964200;28;20067;-87
2023/09/19 06:51:46;;;;;;;0.10;0.10;;;17.80;99.90;;;;;;4965239;28;20066;-89
2023/09/19 06:54:12;;;;;;;0.00;0.00;;;17.80;99.90;;;;;;4966001;28;20095;-90
2023/09/19 06:56:37;;;;;;;0.00;0.00;;;17.80;99.90;;;;;;4956414;28;20027;-88
2023/09/19 06:59:05;;;;;;;0.00;0.00;;;18.00;99.90;;;;;;4949936;28;20130;-88
2023/09/19 07:01:32;;;;;;;0.00;0.00;;;17.90;99.90;;;;;;4951006;29;20037;-89
2023/09/19 07:03:57;;;;;;;0.00;0.00;;;17.80;99.90;;;;;;4951350;28;20070;-91
2023/09/19 07:06:24;;;;;;;0.00;0.00;;;17.60;99.90;;;;;;4950252;28;20032;-90
2023/09/19 07:08:50;;;;;;;0.00;0.00;;;17.50;99.90;;;;;;4949635;28;20031;-90
2023/09/19 07:11:16;;;;;;;0.00;0.00;;;17.50;99.90;;;;;;4938756;28;20094;-90
2023/09/19 07:13:41;;;;;;;0.00;0.00;;;17.30;99.90;;;;;;4953836;28;20031;-89
2023/09/19 07:16:10;;;;;;;0.00;0.00;;;17.30;99.90;;;;;;4944054;28;20444;-89
2023/09/19 07:18:36;;;;;;;0.05;0.05;;;17.40;99.90;;;;;;4939727;29;20075;-90
2023/09/19 07:21:04;;;;;;;0.00;0.00;;;17.40;99.90;;;;;;4949448;28;20055;-88
2023/09/19 07:23:34;;;;;;;0.00;0.00;;;17.40;99.90;;;;;;4945061;28;20582;-89
2023/09/19 07:26:00;;;;;;;0.00;0.00;;;17.70;99.90;;;;;;4950043;28;20035;-91
2023/09/19 07:28:28;;;;;;;0.00;0.00;;;17.70;99.90;;;;;;4953048;28;20035;-91
2023/09/19 07:30:53;;;;;;;0.00;0.00;;;18.20;99.90;;;;;;4949750;28;20035;-90
2023/09/19 07:33:19;;;;;;;0.00;0.00;;;18.20;99.90;;;;;;4950636;29;20038;-89
2023/09/19 07:35:46;;;;;;;0.00;0.00;;;18.10;99.90;;;;;;4948281;28;20499;-90
2023/09/19 07:38:12;;;;;;;0.00;0.00;;;18.30;99.90;;;;;;4951674;29;20038;-90
2023/09/19 07:40:38;;;;;;;0.00;0.00;;;18.50;99.90;;;;;;4966404;28;20031;-88
2023/09/19 07:43:04;;;;;;;0.00;0.00;;;18.80;99.90;;;;;;4951006;29;20024;-90
2023/09/19 07:45:31;;;;;;;0.00;0.00;;;18.90;99.90;;;;;;4966782;28;20034;-91
2023/09/19 07:47:57;;;;;;;;;;;19.20;99.90;;;;;;4953595;29;20028;-92
2023/09/19 07:50:23;;;;;;;0.00;0.00;;;19.40;99.90;;;;;;4954420;28;20009;-91
2023/09/19 07:52:53;;;;;;;0.00;0.00;;;19.50;99.90;;;;;;4952373;29;20042;-92
2023/09/19 07:55:25;;;;;;;0.00;0.00;;;19.70;99.90;;;;;;4955092;28;20023;-92
2023/09/19 07:57:54;;;;;;;0.00;0.00;;;19.70;99.90;;;;;;4962952;28;20061;-91
2023/09/19 08:00:20;;;;;;;4.22;1.00;;;19.90;99.90;;;;;;4954354;29;20099;-91
2023/09/19 08:02:47;;;;;;;0.00;0.00;;;20.20;99.90;;;;;;4945899;29;20050;-92
2023/09/19 08:05:15;;;;;;;0.00;0.00;;;20.40;99.90;;;;;;4946551;28;20397;-92
2023/09/19 08:07:43;;;;;;;0.00;0.00;;;24.40;99.90;;;;;;4955676;29;20027;-90
2023/09/19 08:10:13;;;;;;;0.00;0.00;;;23.50;99.90;;;;;;4961682;28;20043;-91
2023/09/19 08:12:46;;;;;;;0.00;0.00;;;22.30;99.90;;;;;;4949981;28;20541;-92
2023/09/19 08:15:13;;;;;;;0.00;0.00;;;21.30;99.90;;;;;;4951789;29;20023;-92
2023/09/19 08:17:39;;;;;;;0.00;0.00;;;20.60;99.90;;;;;;4956245;28;20019;-92
2023/09/19 08:20:05;;;;;;;0.00;0.00;;;20.40;99.90;;;;;;4955432;29;20043;-92
2023/09/19 08:22:34;;;;;;;0.00;0.00;;;20.30;99.90;;;;;;4965769;28;20023;-92
2023/09/19 08:25:04;;;;;;;0.00;0.00;;;21.10;99.90;;;;;;4955962;29;20127;-92
2023/09/19 08:27:30;;;;;;;0.00;0.00;;;22.40;99.90;;;;;;4950598;28;20035;-92
2023/09/19 08:29:56;;;;;;;0.00;0.00;;;24.50;98.40;;;;;;4952099;28;20038;-92
2023/09/19 08:32:24;;;;;;;0.00;0.00;;;22.90;99.10;;;;;;4957763;29;20427;-91
2023/09/19 08:34:50;;;;;;;0.00;0.00;;;24.70;97.50;;;;;;4952270;29;20035;-92
2023/09/19 08:37:17;;;;;;;0.00;0.00;;;23.70;97.20;;;;;;4952392;28;20063;-93
2023/09/19 08:39:43;;;;;;;1.45;0.35;;;24.10;97.30;;;;;;4952492;28;20055;-92
2023/09/19 08:42:11;;;;;;;0.00;0.00;;;24.80;95.10;;;;;;4955840;28;20638;-92
2023/09/19 08:44:40;;;;;;;0.00;0.00;;;23.60;96.40;;;;;;4954509;28;20126;-93
2023/09/19 08:47:16;;;;;;;0.00;0.00;;;23.00;97.90;;;;;;4954379;28;20042;-91
2023/09/19 08:49:51;;;;;;;0.00;0.00;;;22.70;98.50;;;;;;4970995;28;20027;-92
2023/09/19 08:52:25;;;;;;;0.00;0.00;;;23.70;97.60;;;;;;4944202;28;20039;-92
2023/09/19 08:54:54;;;;;;;0.00;0.00;;;23.60;96.20;;;;;;4938089;28;20020;-92
2023/09/19 08:57:22;;;;;;;0.00;0.00;;;27.30;92.50;;;;;;4963610;28;20061;-93
2023/09/19 08:59:51;;;;;;;0.00;0.00;;;29.40;86.70;;;;;;4956112;29;20023;-92
2023/09/19 09:02:21;;;;;;;0.00;0.00;;;26.70;87.10;;;;;;4955921;29;20027;-92
2023/09/19 09:04:49;;;;;;;0.00;0.00;;;23.70;92.70;;;;;;4956430;28;20038;-93
2023/09/19 09:07:17;;;;;;;0.00;0.00;;;22.50;96.10;;;;;;4955885;29;20653;-92
2023/09/19 09:09:43;;;;;;;0.00;0.00;;;22.70;97.60;;;;;;4945480;28;20817;-92
2023/09/19 09:12:13;;;;;;;0.00;0.00;;;25.10;93.70;;;;;;4953483;28;20035;-91
2023/09/19 09:14:41;;;;;;;0.00;0.00;;;23.50;94.00;;;;;;4950785;28;20035;-92
2023/09/19 09:17:07;;;;;;;0.00;0.00;;;22.10;96.70;;;;;;4956373;28;20054;-93
2023/09/19 09:19:33;;;;;;;0.00;0.00;;;21.30;98.90;;;;;;4950277;28;20031;-93
2023/09/19 09:22:11;;;;;;;0.43;0.28;;;20.80;99.90;;;;;;4955822;28;20044;-92
2023/09/19 09:24:50;;;;;;;0.00;0.00;;;20.40;99.90;;;;;;4955318;28;20077;-92
2023/09/19 09:27:16;;;;;;;0.00;0.00;;;21.80;99.90;;;;;;4956675;29;20039;-92
2023/09/19 09:29:52;;;;;;;0.00;0.00;;;25.50;94.80;;;;;;4955644;28;20038;-92
2023/09/19 09:32:23;;;;;;;0.00;0.00;;;26.80;93.10;;;;;;4955323;28;20054;-93
2023/09/19 09:34:56;;;;;;;0.00;0.00;;;27.30;83.70;;;;;;4946403;28;20048;-93
2023/09/19 09:37:24;;;;;;;0.00;0.00;;;27.90;83.20;;;;;;4970689;28;20043;-93
2023/09/19 09:40:10;;;;;;;0.00;0.00;;;28.80;78.80;;;;;;4950133;28;20042;-93
2023/09/19 09:42:38;;;;;;;0.00;0.00;;;29.20;78.30;;;;;;4955744;28;20031;-94
2023/09/19 09:48:13;;;;;;;0.00;0.00;;;28.90;78.80;;;;;;4955497;29;20051;-94
2023/09/19 09:50:56;;;;;;;0.00;0.00;;;28.70;76.50;;;;;;4955028;28;20114;-94
2023/09/19 09:53:32;;;;;;;0.00;0.00;;;28.60;75.40;;;;;;4952435;28;20035;-94
2023/09/19 09:56:07;;;;;;;0.00;0.00;;;28.00;75.60;;;;;;4955001;28;20035;-93
2023/09/19 09:58:37;;;;;;;0.00;0.00;;;27.60;76.30;;;;;;4944872;29;20035;-94
2023/09/19 10:01:14;;;;;;;0.00;0.00;;;27.00;79.10;;;;;;4954576;28;20056;-94
2023/09/19 10:03:43;;;;;;;0.00;0.00;;;25.90;78.80;;;;;;4965911;28;20046;-94
2023/09/19 10:06:30;;;;;;;0.00;0.00;;;25.90;82.00;;;;;;4952216;28;20038;-94
2023/09/19 10:11:42;;;;;;;0.00;0.00;;;24.50;83.30;;;;;;4948870;29;20605;-94
2023/09/19 10:14:12;;;;;;;0.00;0.00;;;24.10;86.40;;;;;;4950217;28;20035;-95
2023/09/19 10:16:49;;;;;;;0.00;0.00;;;25.20;84.30;;;;;;4951650;28;20122;-94
2023/09/19 10:19:35;;;;;;;0.00;0.00;;;25.60;82.60;;;;;;4963172;28;20497;-94
2023/09/19 10:22:04;;;;;;;0.00;0.00;;;25.30;81.00;;;;;;4971073;28;20519;-94
2023/09/19 10:24:31;;;;;;;0.00;0.00;;;25.30;81.50;;;;;;4954780;28;20036;-93
2023/09/19 10:26:57;;;;;;;0.00;0.00;;;25.20;84.00;;;;;;4952447;29;20528;-93
2023/09/19 10:29:26;;;;;;;0.00;0.00;;;24.20;85.10;;;;;;4952528;28;20035;-94
2023/09/19 10:31:53;;;;;;;0.00;0.00;;;23.90;87.40;;;;;;4944574;29;20036;-95
2023/09/19 10:34:20;;;;;;;0.00;0.00;;;23.70;86.90;;;;;;4960254;28;20023;-94
2023/09/19 10:36:46;;;;;;;0.00;0.00;;;22.80;90.10;;;;;;4955311;28;20035;-94
2023/09/19 10:39:19;;;;;;;0.00;0.00;;;22.80;90.40;;;;;;4971459;28;20038;-93
2023/09/19 10:41:53;;;;;;;0.00;0.00;;;23.00;90.90;;;;;;4950403;29;20522;-94
2023/09/19 10:44:25;;;;;;;0.00;0.00;;;23.80;92.00;;;;;;4951287;28;20035;-94
2023/09/19 10:46:53;;;;;;;0.00;0.00;;;23.60;85.20;;;;;;4950856;28;20035;-92
2023/09/19 10:49:22;;;;;;;0.00;0.00;;;23.80;87.80;;;;;;4956490;29;20043;-93
2023/09/19 10:51:54;;;;;;;0.00;0.00;;;24.10;87.40;;;;;;4946945;28;20024;-93
2023/09/19 10:54:23;;;;;;;0.00;0.00;;;24.00;86.00;;;;;;4941065;28;20035;-94
2023/09/19 10:56:51;;;;;;;0.00;0.00;;;24.10;89.50;;;;;;4952428;28;20035;-94
2023/09/19 10:59:21;;;;;;;0.00;0.00;;;24.00;85.00;;;;;;4951813;29;20098;-93
2023/09/19 11:01:58;;;;;;;0.00;0.00;;;24.00;85.30;;;;;;4942526;29;20119;-94
2023/09/19 11:04:35;;;;;;;0.00;0.00;;;24.00;87.80;;;;;;4954721;28;20267;-92
2023/09/19 11:07:11;;;;;;;;;;;23.80;88.80;;;;;;4963022;28;20031;-94
2023/09/19 11:10:01;;;;;;;0.00;0.00;;;24.00;86.20;;;;;;4943917;28;19915;-94
2023/09/19 11:12:40;;;;;;;0.00;0.00;;;23.40;82.70;;;;;;4957671;28;20035;-93
2023/09/19 11:15:12;;;;;;;0.00;0.00;;;23.30;82.70;;;;;;4957667;28;20448;-93
2023/09/19 11:17:42;;;;;;;0.00;0.00;;;23.80;84.10;;;;;;4958207;28;20039;-93
2023/09/19 11:22:53;;;;;;;0.00;0.00;;;23.10;87.10;;;;;;4957747;29;20027;-93
2023/09/19 11:25:31;;;;;;;0.00;0.00;;;22.70;89.00;;;;;;4945306;29;20111;-94
2023/09/19 11:28:07;;;;;;;0.00;0.00;;;23.50;90.60;;;;;;4945569;28;20094;-93
2023/09/19 11:30:38;;;;;;;0.00;0.00;;;23.60;84.80;;;;;;4957346;28;20097;-94
2023/09/19 11:33:33;;;;;;;0.00;0.00;;;23.40;86.70;;;;;;4958431;28;20309;-94
2023/09/19 11:36:16;;;;;;;0.00;0.00;;;22.80;87.50;;;;;;4959873;28;20047;-93
2023/09/19 11:38:45;;;;;;;0.00;0.00;;;22.80;90.20;;;;;;4952008;29;20035;-94
2023/09/19 11:41:26;;;;;;;0.00;0.00;;;22.90;89.00;;;;;;4954648;28;20030;-93
2023/09/19 11:44:03;;;;;;;0.00;0.00;;;23.10;88.80;;;;;;4957528;28;20058;-93
2023/09/19 11:47:03;;;;;;;0.00;0.00;;;23.20;90.60;;;;;;4968830;28;20506;-93
2023/09/19 11:49:31;;;;;;;0.00;0.00;;;23.10;89.30;;;;;;4945702;28;20103;-93
2023/09/19 11:52:01;;;;;;;0.00;0.00;;;22.90;86.80;;;;;;4957461;28;20067;-93
2023/09/19 11:54:31;;;;;;;0.00;0.00;;;23.00;87.60;;;;;;4947665;29;20032;-93
2023/09/19 11:56:58;;;;;;;0.00;0.00;;;23.10;87.20;;;;;;4973750;28;20038;-93
2023/09/19 11:59:29;;;;;;;0.00;0.00;;;23.00;89.30;;;;;;4944060;28;20031;-91
2023/09/19 12:02:03;;;;;;;0.00;0.00;;;23.10;86.40;;;;;;4974497;28;20118;-93
2023/09/19 12:04:49;;;;;;;0.00;0.00;;;23.20;87.70;;;;;;4957392;28;20028;-93
2023/09/19 12:07:16;;;;;;;0.00;0.00;;;23.10;88.30;;;;;;4952121;28;20031;-93
2023/09/19 12:09:47;;;;;;;0.00;0.00;;;22.90;86.40;;;;;;4947581;29;20114;-92
2023/09/19 12:12:26;;;;;;;0.00;0.00;;;23.10;87.10;;;;;;4955667;28;20035;-94
2023/09/19 12:14:53;;;;;;;0.00;0.00;;;23.00;87.40;;;;;;4961658;28;20038;-94
2023/09/19 12:17:22;;;;;;;;;;;22.80;86.50;;;;;;4957689;28;20031;-93
2023/09/19 12:19:52;;;;;;;0.00;0.00;;;22.80;81.90;;;;;;4954244;28;19910;-93
2023/09/19 12:22:20;;;;;;;0.00;0.00;;;23.00;81.00;;;;;;4946772;28;20035;-93
2023/09/19 12:24:46;;;;;;;0.00;0.00;;;23.10;84.40;;;;;;4946980;29;20099;-92
2023/09/19 12:27:12;;;;;;;0.00;0.00;;;23.00;82.40;;;;;;4950872;28;20574;-92
2023/09/19 12:29:49;;;;;;;0.00;0.00;;;23.00;83.30;;;;;;4955362;28;20043;-93
2023/09/19 12:32:21;;;;;;;0.00;0.00;;;23.10;82.60;;;;;;4956325;28;20035;-93
2023/09/19 12:34:54;;;;;;;0.00;0.00;;;22.80;79.60;;;;;;4946465;29;20032;-93
2023/09/19 12:37:27;;;;;;;0.00;0.00;;;22.70;82.10;;;;;;4961779;28;20601;-92
2023/09/19 12:39:54;;;;;;;0.00;0.00;;;22.90;80.30;;;;;;4951533;29;20051;-91
2023/09/19 12:42:31;;;;;;;0.10;0.10;;;22.80;76.00;;;;;;4955904;28;20035;-92
2023/09/19 12:45:00;;;;;;;0.00;0.00;;;22.90;80.80;;;;;;4950083;29;20375;-93
2023/09/19 12:47:27;;;;;;;0.00;0.00;;;22.90;81.30;;;;;;4940552;28;20099;-93
2023/09/19 12:50:25;;;;;;;0.15;0.15;;;22.90;81.20;;;;;;4969870;28;20042;-90
2023/09/19 12:52:52;;;;;;;0.00;0.00;;;22.70;78.00;;;;;;4949521;29;20469;-91
2023/09/19 12:55:26;;;;;;;0.00;0.00;;;22.90;77.90;;;;;;4955573;28;20082;-92
2023/09/19 12:58:12;;;;;;;0.00;0.00;;;22.80;71.80;;;;;;4971888;28;20463;-90
2023/09/19 13:00:44;;;;;;;0.00;0.00;;;22.60;71.90;;;;;;4955119;28;20019;-91
2023/09/19 13:03:16;;;;;;;0.00;0.00;;;22.70;75.70;;;;;;4943530;29;20082;-91
2023/09/19 13:06:04;;;;;;;0.00;0.00;;;22.70;73.20;;;;;;4950756;28;20024;-92
2023/09/19 13:08:31;;;;;;;0.03;0.03;;;22.60;69.30;;;;;;4954506;28;20673;-91